createdAt,value
2019-05-22T00:00:47.582Z,0.00
2019-05-22T00:01:47.588Z,0.00
2019-05-22T00:02:47.599Z,0.00
2019-05-22T00:03:47.608Z,0.00
2019-05-22T00:04:47.611Z,0.00
2019-05-22T00:05:47.626Z,0.00
2019-05-22T00:06:47.647Z,0.00
2019-05-22T00:07:47.786Z,0.00
2019-05-22T00:08:47.643Z,0.00
2019-05-22T00:09:47.652Z,0.00
2019-05-22T00:10:47.662Z,0.00
2019-05-22T00:11:47.666Z,0.00
2019-05-22T00:12:47.669Z,0.00
2019-05-22T00:13:47.681Z,0.00
2019-05-22T00:14:47.684Z,0.00
2019-05-22T00:15:47.691Z,0.00
2019-05-22T00:16:47.705Z,0.00
2019-05-22T00:17:47.817Z,0.00
2019-05-22T00:18:47.715Z,0.00
2019-05-22T00:19:47.728Z,0.00
2019-05-22T00:20:47.751Z,0.00
2019-05-22T00:21:47.733Z,0.00
2019-05-22T00:22:47.749Z,0.00
2019-05-22T00:23:47.765Z,0.00
2019-05-22T00:24:47.765Z,0.00
2019-05-22T00:25:47.766Z,0.00
2019-05-22T00:26:47.777Z,0.00
2019-05-22T00:27:47.785Z,0.00
2019-05-22T00:28:47.788Z,0.00
2019-05-22T00:29:47.820Z,0.00
2019-05-22T00:30:47.794Z,0.00
2019-05-22T00:31:47.802Z,0.00
2019-05-22T00:32:47.822Z,0.00
2019-05-22T00:33:47.830Z,0.00
2019-05-22T00:34:47.836Z,0.00
2019-05-22T00:35:47.854Z,0.00
2019-05-22T00:36:47.849Z,0.00
2019-05-22T00:37:47.863Z,0.00
2019-05-22T00:38:47.857Z,0.00
2019-05-22T00:39:47.876Z,0.00
2019-05-22T00:40:47.893Z,0.00
2019-05-22T00:41:47.893Z,0.00
2019-05-22T00:43:02.874Z,0.00
2019-05-22T00:43:47.907Z,0.00
2019-05-22T00:44:47.922Z,0.00
2019-05-22T00:45:47.909Z,0.00
2019-05-22T00:46:47.919Z,0.00
2019-05-22T00:47:47.932Z,0.00
2019-05-22T00:48:47.934Z,0.00
2019-05-22T00:49:47.943Z,0.00
2019-05-22T00:50:47.955Z,0.00
2019-05-22T00:51:47.964Z,0.00
2019-05-22T00:52:47.970Z,0.00
2019-05-22T00:53:47.987Z,0.00
2019-05-22T00:54:47.982Z,0.00
2019-05-22T00:55:48.010Z,0.00
2019-05-22T00:56:47.996Z,0.00
2019-05-22T00:57:48.007Z,0.00
2019-05-22T00:58:48.017Z,0.00
2019-05-22T00:59:48.019Z,0.00
2019-05-22T01:00:48.031Z,0.00
2019-05-22T01:01:48.031Z,0.00
2019-05-22T01:02:48.043Z,0.00
2019-05-22T01:03:48.048Z,0.00
2019-05-22T01:04:48.060Z,0.00
2019-05-22T01:05:48.068Z,0.00
2019-05-22T01:06:48.082Z,0.00
2019-05-22T01:07:48.078Z,0.00
2019-05-22T01:08:48.086Z,0.00
2019-05-22T01:09:48.096Z,0.00
2019-05-22T01:10:48.098Z,0.00
2019-05-22T01:11:48.176Z,0.00
2019-05-22T01:12:48.107Z,0.00
2019-05-22T01:13:48.132Z,0.00
2019-05-22T01:14:48.132Z,0.00
2019-05-22T01:15:48.137Z,0.00
2019-05-22T01:16:48.160Z,0.00
2019-05-22T01:17:48.156Z,0.00
2019-05-22T01:18:48.161Z,0.00
2019-05-22T01:19:48.163Z,0.00
2019-05-22T01:20:48.175Z,0.00
2019-05-22T01:21:48.185Z,0.00
2019-05-22T01:22:48.202Z,0.00
2019-05-22T01:23:48.195Z,0.00
2019-05-22T01:24:48.217Z,0.00
2019-05-22T01:25:48.224Z,0.00
2019-05-22T01:26:48.297Z,0.00
2019-05-22T01:27:48.240Z,0.00
2019-05-22T01:28:48.226Z,0.00
2019-05-22T01:29:48.247Z,0.00
2019-05-22T01:30:48.248Z,0.00
2019-05-22T01:31:48.268Z,0.00
2019-05-22T01:32:48.269Z,0.00
2019-05-22T01:33:48.264Z,0.00
2019-05-22T01:34:48.287Z,0.00
2019-05-22T01:35:48.275Z,0.00
2019-05-22T01:36:48.285Z,0.00
2019-05-22T01:37:48.312Z,0.00
2019-05-22T01:38:48.306Z,0.00
2019-05-22T01:39:48.371Z,0.00
2019-05-22T01:40:48.318Z,0.00
2019-05-22T01:41:48.332Z,0.00
2019-05-22T01:42:48.330Z,0.00
2019-05-22T01:43:48.337Z,0.00
2019-05-22T01:45:01.630Z,0.00
2019-05-22T01:45:48.360Z,0.00
2019-05-22T01:46:48.365Z,0.00
2019-05-22T01:47:48.378Z,0.00
2019-05-22T01:48:48.384Z,0.00
2019-05-22T01:49:48.496Z,0.00
2019-05-22T01:50:48.393Z,0.00
2019-05-22T01:51:48.400Z,0.00
2019-05-22T01:52:48.413Z,0.00
2019-05-22T01:53:48.417Z,0.00
2019-05-22T01:54:48.425Z,0.00
2019-05-22T01:55:48.428Z,0.00
2019-05-22T01:56:48.448Z,0.00
2019-05-22T01:57:48.451Z,0.00
2019-05-22T01:58:48.452Z,0.00
2019-05-22T01:59:48.579Z,0.00
2019-05-22T02:00:48.464Z,0.00
2019-05-22T02:01:48.522Z,0.00
2019-05-22T02:02:48.476Z,0.00
2019-05-22T02:03:48.492Z,0.00
2019-05-22T02:04:48.489Z,0.00
2019-05-22T02:05:48.506Z,0.00
2019-05-22T02:06:48.511Z,0.00
2019-05-22T02:07:48.521Z,0.00
2019-05-22T02:08:48.522Z,0.00
2019-05-22T02:09:48.541Z,0.00
2019-05-22T02:10:48.541Z,0.00
2019-05-22T02:11:48.547Z,0.00
2019-05-22T02:12:48.552Z,0.00
2019-05-22T02:13:48.562Z,0.00
2019-05-22T02:14:48.571Z,0.00
2019-05-22T02:15:48.572Z,0.00
2019-05-22T02:16:56.665Z,0.00
2019-05-22T02:17:48.694Z,0.00
2019-05-22T02:18:48.588Z,0.00
2019-05-22T02:19:48.615Z,0.00
2019-05-22T02:20:49.594Z,0.00
2019-05-22T02:21:48.621Z,0.00
2019-05-22T02:22:48.630Z,0.00
2019-05-22T02:23:48.633Z,0.00
2019-05-22T02:24:48.637Z,0.00
2019-05-22T02:25:48.644Z,0.00
2019-05-22T02:26:48.663Z,0.00
2019-05-22T02:27:48.689Z,0.00
2019-05-22T02:28:48.671Z,0.00
2019-05-22T02:29:48.677Z,0.00
2019-05-22T02:30:48.688Z,0.00
2019-05-22T02:31:48.700Z,0.00
2019-05-22T02:32:48.699Z,0.00
2019-05-22T02:33:48.704Z,0.00
2019-05-22T02:34:48.717Z,0.00
2019-05-22T02:35:48.721Z,0.00
2019-05-22T02:36:48.727Z,0.00
2019-05-22T02:37:48.733Z,0.00
2019-05-22T02:38:48.744Z,0.00
2019-05-22T02:39:48.747Z,0.00
2019-05-22T02:40:48.740Z,0.00
2019-05-22T02:41:48.767Z,0.00
2019-05-22T02:42:48.773Z,0.00
2019-05-22T02:43:48.785Z,0.00
2019-05-22T02:44:48.828Z,0.00
2019-05-22T02:45:48.791Z,0.00
2019-05-22T02:46:48.800Z,0.00
2019-05-22T02:47:48.805Z,0.00
2019-05-22T02:48:48.812Z,0.00
2019-05-22T02:49:48.822Z,0.00
2019-05-22T02:50:48.884Z,0.00
2019-05-22T02:51:48.836Z,0.00
2019-05-22T02:52:48.841Z,0.00
2019-05-22T02:53:48.883Z,0.00
2019-05-22T02:54:48.858Z,0.00
2019-05-22T02:55:48.895Z,0.00
2019-05-22T02:56:48.868Z,0.00
2019-05-22T02:57:48.878Z,0.00
2019-05-22T02:58:48.886Z,0.00
2019-05-22T02:59:48.896Z,0.00
2019-05-22T03:00:48.893Z,0.00
2019-05-22T03:01:48.903Z,0.00
2019-05-22T03:02:48.909Z,4.00
2019-05-22T03:03:48.914Z,0.00
2019-05-22T03:04:48.930Z,4.00
2019-05-22T03:05:49.014Z,0.00
2019-05-22T03:06:48.951Z,0.00
2019-05-22T03:07:48.948Z,4.00
2019-05-22T03:08:48.953Z,0.00
2019-05-22T03:09:48.959Z,0.00
2019-05-22T03:10:48.972Z,0.00
2019-05-22T03:11:48.980Z,4.00
2019-05-22T03:12:48.993Z,4.00
2019-05-22T03:13:48.995Z,4.00
2019-05-22T03:14:49.051Z,4.00
2019-05-22T03:15:49.002Z,4.00
2019-05-22T03:16:49.012Z,8.00
2019-05-22T03:17:49.014Z,4.00
2019-05-22T03:19:07.598Z,8.00
2019-05-22T03:19:49.052Z,8.00
2019-05-22T03:20:49.116Z,12.00
2019-05-22T03:21:49.049Z,12.00
2019-05-22T03:22:49.050Z,12.00
2019-05-22T03:23:49.059Z,12.00
2019-05-22T03:24:49.071Z,16.00
2019-05-22T03:25:49.077Z,16.00
2019-05-22T03:26:49.079Z,20.00
2019-05-22T03:27:49.101Z,28.00
2019-05-22T03:28:49.110Z,32.00
2019-05-22T03:29:49.101Z,36.00
2019-05-22T03:30:49.115Z,32.00
2019-05-22T03:31:49.118Z,40.00
2019-05-22T03:32:49.130Z,40.00
2019-05-22T03:33:49.131Z,36.00
2019-05-22T03:34:49.138Z,32.00
2019-05-22T03:35:49.164Z,40.00
2019-05-22T03:36:49.154Z,52.00
2019-05-22T03:37:49.158Z,56.00
2019-05-22T03:38:49.168Z,60.00
2019-05-22T03:39:49.173Z,68.00
2019-05-22T03:40:49.182Z,72.00
2019-05-22T03:41:49.209Z,80.00
2019-05-22T03:42:49.196Z,84.00
2019-05-22T03:43:49.202Z,92.00
2019-05-22T03:44:49.210Z,96.00
2019-05-22T03:45:49.218Z,112.00
2019-05-22T03:46:49.217Z,120.00
2019-05-22T03:47:49.230Z,132.00
2019-05-22T03:48:49.250Z,140.00
2019-05-22T03:49:49.241Z,156.00
2019-05-22T03:50:49.252Z,164.00
2019-05-22T03:51:49.252Z,168.00
2019-05-22T03:52:49.268Z,172.00
2019-05-22T03:53:49.267Z,168.00
2019-05-22T03:54:49.281Z,176.00
2019-05-22T03:55:49.292Z,188.00
2019-05-22T03:56:49.352Z,204.00
2019-05-22T03:57:49.300Z,224.00
2019-05-22T03:58:49.316Z,240.00
2019-05-22T03:59:49.321Z,236.00
2019-05-22T04:00:49.313Z,220.00
2019-05-22T04:01:49.322Z,212.00
2019-05-22T04:02:49.331Z,208.00
2019-05-22T04:03:49.338Z,208.00
2019-05-22T04:04:49.357Z,220.00
2019-05-22T04:05:49.364Z,232.00
2019-05-22T04:06:49.351Z,236.00
2019-05-22T04:07:49.369Z,240.00
2019-05-22T04:08:49.381Z,240.00
2019-05-22T04:09:49.380Z,232.00
2019-05-22T04:10:49.387Z,236.00
2019-05-22T04:11:49.397Z,240.00
2019-05-22T04:12:49.406Z,240.00
2019-05-22T04:13:49.415Z,232.00
2019-05-22T04:14:49.434Z,228.00
2019-05-22T04:15:49.425Z,220.00
2019-05-22T04:16:49.436Z,220.00
2019-05-22T04:17:49.438Z,216.00
2019-05-22T04:18:49.436Z,224.00
2019-05-22T04:19:51.661Z,236.00
2019-05-22T04:20:49.459Z,240.00
2019-05-22T04:21:49.467Z,244.00
2019-05-22T04:22:49.470Z,240.00
2019-05-22T04:23:49.480Z,228.00
2019-05-22T04:24:49.489Z,208.00
2019-05-22T04:25:53.162Z,192.00
2019-05-22T04:26:49.497Z,188.00
2019-05-22T04:27:49.510Z,180.00
2019-05-22T04:28:49.513Z,176.00
2019-05-22T04:29:49.565Z,184.00
2019-05-22T04:30:49.546Z,212.00
2019-05-22T04:31:49.540Z,256.00
2019-05-22T04:32:49.541Z,264.00
2019-05-22T04:33:49.554Z,280.00
2019-05-22T04:34:49.559Z,320.00
2019-05-22T04:35:49.562Z,332.00
2019-05-22T04:36:49.572Z,312.00
2019-05-22T04:37:49.582Z,316.00
2019-05-22T04:38:49.584Z,324.00
2019-05-22T04:39:49.584Z,320.00
2019-05-22T04:40:49.625Z,356.00
2019-05-22T04:41:49.602Z,396.00
2019-05-22T04:42:49.618Z,428.00
2019-05-22T04:43:49.628Z,464.00
2019-05-22T04:44:49.634Z,540.00
2019-05-22T04:45:49.635Z,608.00
2019-05-22T04:46:49.639Z,624.00
2019-05-22T04:47:49.650Z,636.00
2019-05-22T04:48:49.651Z,628.00
2019-05-22T04:50:06.213Z,596.00
2019-05-22T04:50:49.683Z,576.00
2019-05-22T04:51:49.675Z,552.00
2019-05-22T04:52:49.680Z,548.00
2019-05-22T04:53:49.689Z,536.00
2019-05-22T04:54:52.496Z,532.00
2019-05-22T04:55:49.702Z,532.00
2019-05-22T04:56:49.720Z,512.00
2019-05-22T04:57:49.721Z,508.00
2019-05-22T04:58:49.719Z,516.00
2019-05-22T04:59:49.729Z,532.00
2019-05-22T05:00:49.734Z,528.00
2019-05-22T05:01:49.741Z,520.00
2019-05-22T05:02:49.753Z,504.00
2019-05-22T05:03:49.747Z,476.00
2019-05-22T05:04:49.772Z,472.00
2019-05-22T05:05:49.776Z,484.00
2019-05-22T05:06:49.891Z,496.00
2019-05-22T05:07:49.776Z,492.00
2019-05-22T05:08:49.795Z,496.00
2019-05-22T05:09:49.798Z,480.00
2019-05-22T05:10:49.850Z,452.00
2019-05-22T05:11:49.811Z,420.00
2019-05-22T05:12:49.821Z,412.00
2019-05-22T05:13:49.821Z,440.00
2019-05-22T05:14:49.841Z,460.00
2019-05-22T05:15:49.839Z,452.00
2019-05-22T05:16:49.846Z,436.00
2019-05-22T05:17:49.856Z,424.00
2019-05-22T05:18:49.863Z,408.00
2019-05-22T05:19:49.875Z,416.00
2019-05-22T05:20:49.932Z,416.00
2019-05-22T05:21:49.889Z,428.00
2019-05-22T05:22:49.892Z,448.00
2019-05-22T05:23:49.911Z,496.00
2019-05-22T05:24:49.897Z,532.00
2019-05-22T05:25:49.914Z,524.00
2019-05-22T05:26:49.921Z,524.00
2019-05-22T05:27:49.932Z,524.00
2019-05-22T05:28:49.944Z,564.00
2019-05-22T05:29:49.942Z,600.00
2019-05-22T05:30:49.953Z,692.00
2019-05-22T05:31:49.949Z,740.00
2019-05-22T05:32:49.962Z,788.00
2019-05-22T05:33:49.969Z,840.00
2019-05-22T05:34:49.975Z,872.00
2019-05-22T05:35:49.984Z,912.00
2019-05-22T05:36:49.992Z,900.00
2019-05-22T05:37:49.996Z,880.00
2019-05-22T05:38:49.989Z,868.00
2019-05-22T05:39:50.011Z,876.00
2019-05-22T05:40:50.018Z,900.00
2019-05-22T05:41:50.018Z,904.00
2019-05-22T05:42:50.032Z,900.00
2019-05-22T05:43:50.032Z,924.00
2019-05-22T05:44:50.045Z,912.00
2019-05-22T05:45:50.056Z,940.00
2019-05-22T05:46:50.057Z,916.00
2019-05-22T05:47:50.065Z,888.00
2019-05-22T05:48:50.073Z,896.00
2019-05-22T05:49:50.074Z,956.00
2019-05-22T05:50:50.095Z,960.00
2019-05-22T05:51:50.086Z,1040.00
2019-05-22T05:52:50.102Z,1076.00
2019-05-22T05:53:50.105Z,1088.00
2019-05-22T05:54:50.117Z,1176.00
2019-05-22T05:55:50.124Z,1216.00
2019-05-22T05:56:50.133Z,1312.00
2019-05-22T05:57:50.137Z,1312.00
2019-05-22T05:58:50.150Z,1336.00
2019-05-22T05:59:50.154Z,1344.00
2019-05-22T06:00:50.167Z,1380.00
2019-05-22T06:01:50.176Z,1428.00
2019-05-22T06:02:56.637Z,1544.00
2019-05-22T06:03:50.178Z,1556.00
2019-05-22T06:04:50.186Z,1656.00
2019-05-22T06:05:50.197Z,1644.00
2019-05-22T06:06:50.207Z,1696.00
2019-05-22T06:07:50.205Z,1812.00
2019-05-22T06:08:50.220Z,1912.00
2019-05-22T06:09:50.221Z,2076.00
2019-05-22T06:10:50.242Z,2328.00
2019-05-22T06:11:50.295Z,2408.00
2019-05-22T06:12:50.269Z,2536.00
2019-05-22T06:13:50.252Z,2788.00
2019-05-22T06:14:50.267Z,2712.00
2019-05-22T06:15:50.284Z,2896.00
2019-05-22T06:16:50.279Z,3092.00
2019-05-22T06:17:50.281Z,3208.00
2019-05-22T06:18:50.290Z,3280.00
2019-05-22T06:19:50.303Z,3312.00
2019-05-22T06:21:03.259Z,3420.00
2019-05-22T06:21:50.312Z,3460.00
2019-05-22T06:22:50.321Z,3452.00
2019-05-22T06:23:50.327Z,3404.00
2019-05-22T06:24:50.337Z,3204.00
2019-05-22T06:25:50.343Z,3164.00
2019-05-22T06:26:50.365Z,3140.00
2019-05-22T06:27:50.371Z,3164.00
2019-05-22T06:28:50.366Z,3180.00
2019-05-22T06:29:50.367Z,3136.00
2019-05-22T06:31:50.393Z,2944.00
2019-05-22T06:32:50.396Z,2704.00
2019-05-22T06:33:50.402Z,2492.00
2019-05-22T06:34:50.414Z,2348.00
2019-05-22T06:35:50.435Z,2328.00
2019-05-22T06:36:50.434Z,2340.00
2019-05-22T06:37:50.437Z,2364.00
2019-05-22T06:38:50.446Z,2284.00
2019-05-22T06:39:50.504Z,2224.00
2019-05-22T06:40:50.463Z,2236.00
2019-05-22T06:41:50.530Z,2244.00
2019-05-22T06:42:50.478Z,2296.00
2019-05-22T06:43:50.494Z,2384.00
2019-05-22T06:44:50.495Z,2568.00
2019-05-22T06:45:50.500Z,2692.00
2019-05-22T06:46:50.502Z,2876.00
2019-05-22T06:47:50.521Z,3092.00
2019-05-22T06:48:50.529Z,3168.00
2019-05-22T06:49:50.668Z,3144.00
2019-05-22T06:50:50.540Z,3072.00
2019-05-22T06:51:50.605Z,2816.00
2019-05-22T06:52:50.643Z,2400.00
2019-05-22T06:53:50.669Z,2128.00
2019-05-22T06:54:50.844Z,1908.00
2019-05-22T06:55:50.584Z,1760.00
2019-05-22T06:56:50.642Z,1712.00
2019-05-22T06:57:50.631Z,1624.00
2019-05-22T06:58:50.684Z,1556.00
2019-05-22T07:00:10.867Z,1536.00
2019-05-22T07:00:50.842Z,1544.00
2019-05-22T07:01:50.658Z,1568.00
2019-05-22T07:02:50.631Z,1596.00
2019-05-22T07:03:50.636Z,1600.00
2019-05-22T07:04:50.651Z,1548.00
2019-05-22T07:05:50.750Z,1516.00
2019-05-22T07:06:50.665Z,1512.00
2019-05-22T07:07:50.669Z,1492.00
2019-05-22T07:08:50.673Z,1484.00
2019-05-22T07:09:50.685Z,1432.00
2019-05-22T07:10:50.691Z,1392.00
2019-05-22T07:11:50.713Z,1428.00
2019-05-22T07:12:51.182Z,1536.00
2019-05-22T07:13:50.713Z,1572.00
2019-05-22T07:14:50.725Z,1644.00
2019-05-22T07:15:50.726Z,1812.00
2019-05-22T07:17:50.756Z,2100.00
2019-05-22T07:18:50.751Z,2112.00
2019-05-22T07:19:50.766Z,2104.00
2019-05-22T07:20:50.781Z,2028.00
2019-05-22T07:21:50.781Z,2044.00
2019-05-22T07:22:50.799Z,2184.00
2019-05-22T07:23:50.789Z,2376.00
2019-05-22T07:24:50.813Z,2508.00
2019-05-22T07:25:50.810Z,2556.00
2019-05-22T07:26:50.818Z,2616.00
2019-05-22T07:27:50.832Z,2816.00
2019-05-22T07:28:50.935Z,2784.00
2019-05-22T07:29:50.831Z,2888.00
2019-05-22T07:30:50.867Z,2968.00
2019-05-22T07:31:50.850Z,2984.00
2019-05-22T07:32:50.863Z,3020.00
2019-05-22T07:33:50.869Z,2908.00
2019-05-22T07:34:50.873Z,2844.00
2019-05-22T07:36:08.479Z,2724.00
2019-05-22T07:36:50.887Z,2636.00
2019-05-22T07:37:50.911Z,2612.00
2019-05-22T07:38:50.902Z,2596.00
2019-05-22T07:39:50.910Z,2564.00
2019-05-22T07:40:51.693Z,2596.00
2019-05-22T07:41:50.934Z,2636.00
2019-05-22T07:42:50.953Z,2572.00
2019-05-22T07:43:50.950Z,2524.00
2019-05-22T07:44:50.948Z,2556.00
2019-05-22T07:45:50.961Z,2584.00
2019-05-22T07:46:50.968Z,2560.00
2019-05-22T07:47:50.972Z,2556.00
2019-05-22T07:48:50.974Z,2584.00
2019-05-22T07:49:50.998Z,2648.00
2019-05-22T07:50:51.106Z,2712.00
2019-05-22T07:51:58.873Z,2704.00
2019-05-22T07:52:51.007Z,2704.00
2019-05-22T07:53:51.015Z,2804.00
2019-05-22T07:54:51.028Z,2760.00
2019-05-22T07:55:51.062Z,2780.00
2019-05-22T07:56:51.045Z,2788.00
2019-05-22T07:57:51.051Z,2736.00
2019-05-22T07:58:51.111Z,2740.00
2019-05-22T07:59:51.061Z,2736.00
2019-05-22T08:00:51.093Z,2752.00
2019-05-22T08:01:51.096Z,2768.00
2019-05-22T08:02:51.133Z,2784.00
2019-05-22T08:03:51.102Z,2892.00
2019-05-22T08:04:51.116Z,2964.00
2019-05-22T08:05:51.148Z,3092.00
2019-05-22T08:06:51.127Z,3356.00
2019-05-22T08:07:51.150Z,3392.00
2019-05-22T08:08:51.162Z,3352.00
2019-05-22T08:09:51.159Z,3380.00
2019-05-22T08:10:51.151Z,3484.00
2019-05-22T08:11:51.517Z,3648.00
2019-05-22T08:12:51.178Z,4072.00
2019-05-22T08:13:51.169Z,4356.00
2019-05-22T08:14:51.223Z,4632.00
2019-05-22T08:15:51.197Z,4788.00
2019-05-22T08:16:51.197Z,4952.00
2019-05-22T08:17:53.995Z,5008.00
2019-05-22T08:18:51.269Z,5112.00
2019-05-22T08:19:51.247Z,5236.00
2019-05-22T08:20:51.234Z,5380.00
2019-05-22T08:22:04.673Z,5432.00
2019-05-22T08:22:51.259Z,5392.00
2019-05-22T08:23:51.260Z,5240.00
2019-05-22T08:24:51.270Z,5140.00
2019-05-22T08:25:51.282Z,4996.00
2019-05-22T08:26:54.477Z,4812.00
2019-05-22T08:27:51.293Z,4664.00
2019-05-22T08:28:51.636Z,4568.00
2019-05-22T08:29:51.314Z,4512.00
2019-05-22T08:30:51.318Z,4396.00
2019-05-22T08:31:51.332Z,4548.00
2019-05-22T08:32:51.337Z,4424.00
2019-05-22T08:33:51.350Z,4340.00
2019-05-22T08:34:51.358Z,4656.00
2019-05-22T08:35:51.368Z,4336.00
2019-05-22T08:36:51.373Z,4324.00
2019-05-22T08:37:51.385Z,4376.00
2019-05-22T08:38:51.381Z,4416.00
2019-05-22T08:39:51.415Z,4200.00
2019-05-22T08:40:51.409Z,4120.00
2019-05-22T08:41:51.496Z,3964.00
2019-05-22T08:42:51.487Z,3852.00
2019-05-22T08:44:13.616Z,3764.00
2019-05-22T08:44:51.442Z,3728.00
2019-05-22T08:45:51.573Z,3608.00
2019-05-22T08:46:51.508Z,3548.00
2019-05-22T08:47:51.468Z,3472.00
2019-05-22T08:48:51.534Z,3452.00
2019-05-22T08:49:51.486Z,3488.00
2019-05-22T08:50:51.500Z,3420.00
2019-05-22T08:51:51.502Z,3220.00
2019-05-22T08:52:51.509Z,3116.00
2019-05-22T08:53:51.515Z,3132.00
2019-05-22T08:54:51.516Z,3216.00
2019-05-22T08:55:51.536Z,3248.00
2019-05-22T08:56:51.598Z,3308.00
2019-05-22T08:57:51.561Z,3304.00
2019-05-22T08:58:51.560Z,3328.00
2019-05-22T08:59:51.570Z,3388.00
2019-05-22T09:00:51.572Z,3468.00
2019-05-22T09:01:51.585Z,3568.00
2019-05-22T09:02:51.595Z,3500.00
2019-05-22T09:03:51.712Z,3508.00
2019-05-22T09:04:51.613Z,3592.00
2019-05-22T09:05:52.122Z,3820.00
2019-05-22T09:06:51.650Z,4152.00
2019-05-22T09:07:51.638Z,4476.00
2019-05-22T09:08:51.639Z,4868.00
2019-05-22T09:09:51.646Z,5136.00
2019-05-22T09:10:51.657Z,5184.00
2019-05-22T09:11:51.662Z,5184.00
2019-05-22T09:12:51.693Z,5040.00
2019-05-22T09:13:51.700Z,5016.00
2019-05-22T09:14:51.689Z,4912.00
2019-05-22T09:15:51.701Z,4968.00
2019-05-22T09:16:51.713Z,4956.00
2019-05-22T09:17:51.719Z,4944.00
2019-05-22T09:18:51.803Z,4860.00
2019-05-22T09:19:51.794Z,4796.00
2019-05-22T09:20:51.736Z,4784.00
2019-05-22T09:21:51.744Z,4860.00
2019-05-22T09:22:51.755Z,4924.00
2019-05-22T09:23:51.772Z,5048.00
2019-05-22T09:24:51.783Z,4928.00
2019-05-22T09:25:51.803Z,4964.00
2019-05-22T09:26:51.835Z,4804.00
2019-05-22T09:27:51.802Z,4900.00
2019-05-22T09:28:51.816Z,5056.00
2019-05-22T09:29:51.808Z,5180.00
2019-05-22T09:30:51.833Z,5404.00
2019-05-22T09:31:51.833Z,5776.00
2019-05-22T09:32:51.845Z,5912.00
2019-05-22T09:33:51.864Z,6060.00
2019-05-22T09:34:51.860Z,6176.00
2019-05-22T09:35:51.930Z,6388.00
2019-05-22T09:36:51.882Z,6572.00
2019-05-22T09:37:51.887Z,6572.00
2019-05-22T09:38:52.806Z,6776.00
2019-05-22T09:39:51.958Z,6984.00
2019-05-22T09:40:51.909Z,7260.00
2019-05-22T09:41:51.925Z,7372.00
2019-05-22T09:42:51.935Z,7560.00
2019-05-22T09:43:52.007Z,8000.00
2019-05-22T09:44:52.059Z,8352.00
2019-05-22T09:45:51.960Z,8596.00
2019-05-22T09:46:51.962Z,8880.00
2019-05-22T09:47:51.978Z,9040.00
2019-05-22T09:48:51.982Z,8936.00
2019-05-22T09:49:51.994Z,8692.00
2019-05-22T09:50:52.014Z,8424.00
2019-05-22T09:51:52.026Z,8164.00
2019-05-22T09:52:57.652Z,7996.00
2019-05-22T09:53:52.034Z,7796.00
2019-05-22T09:54:52.087Z,8104.00
2019-05-22T09:55:52.057Z,8204.00
2019-05-22T09:56:52.057Z,8184.00
2019-05-22T09:57:52.072Z,8916.00
2019-05-22T09:58:52.089Z,9888.00
2019-05-22T09:59:52.085Z,11624.00
2019-05-22T10:00:52.110Z,12640.00
2019-05-22T10:01:52.108Z,13660.00
2019-05-22T10:02:52.115Z,13252.00
2019-05-22T10:03:52.120Z,13864.00
2019-05-22T10:04:52.129Z,12468.00
2019-05-22T10:05:52.278Z,12336.00
2019-05-22T10:06:52.164Z,13144.00
2019-05-22T10:08:00.435Z,13632.00
2019-05-22T10:08:52.180Z,13916.00
2019-05-22T10:09:52.190Z,14948.00
2019-05-22T10:10:53.160Z,15140.00
2019-05-22T10:11:52.213Z,13520.00
2019-05-22T10:12:52.220Z,12564.00
2019-05-22T10:13:52.347Z,14624.00
2019-05-22T10:14:52.500Z,12664.00
2019-05-22T10:15:52.256Z,29184.00
2019-05-22T10:16:52.269Z,14504.00
2019-05-22T10:17:52.305Z,15688.00
2019-05-22T10:18:53.611Z,15732.00
2019-05-22T10:19:52.300Z,14272.00
2019-05-22T10:20:52.323Z,13244.00
2019-05-22T10:21:52.335Z,12980.00
2019-05-22T10:22:52.369Z,12652.00
2019-05-22T10:23:52.343Z,12192.00
2019-05-22T10:24:52.366Z,12660.00
2019-05-22T10:25:52.378Z,21056.00
2019-05-22T10:26:52.400Z,19136.00
2019-05-22T10:27:52.398Z,18496.00
2019-05-22T10:28:52.409Z,15960.00
2019-05-22T10:29:52.427Z,18688.00
2019-05-22T10:30:52.785Z,15168.00
2019-05-22T10:31:52.447Z,13396.00
2019-05-22T10:32:52.464Z,12324.00
2019-05-22T10:33:52.592Z,11860.00
2019-05-22T10:34:52.490Z,11488.00
2019-05-22T10:35:52.505Z,10692.00
2019-05-22T10:36:52.510Z,9980.00
2019-05-22T10:38:52.550Z,9592.00
2019-05-22T10:39:52.551Z,9968.00
2019-05-22T10:40:52.562Z,13720.00
2019-05-22T10:41:52.578Z,13572.00
2019-05-22T10:42:52.696Z,12272.00
2019-05-22T10:43:52.614Z,11528.00
2019-05-22T10:44:52.610Z,11180.00
2019-05-22T10:45:52.624Z,11296.00
2019-05-22T10:46:52.643Z,16624.00
2019-05-22T10:47:52.653Z,26816.00
2019-05-22T10:48:52.655Z,22176.00
2019-05-22T10:49:52.690Z,28256.00
2019-05-22T10:50:52.690Z,28192.00
2019-05-22T10:51:52.704Z,27680.00
2019-05-22T10:52:54.545Z,27552.00
2019-05-22T10:53:52.729Z,28224.00
2019-05-22T10:54:55.938Z,28224.00
2019-05-22T10:55:52.772Z,27456.00
2019-05-22T10:56:52.780Z,27840.00
2019-05-22T10:57:52.806Z,14184.00
2019-05-22T10:58:52.818Z,28192.00
2019-05-22T10:59:52.818Z,24064.00
2019-05-22T11:00:52.844Z,27776.00
2019-05-22T11:01:52.856Z,27232.00
2019-05-22T11:02:52.872Z,13948.00
2019-05-22T11:03:52.888Z,11584.00
2019-05-22T11:04:52.905Z,12004.00
2019-05-22T11:06:06.462Z,15604.00
2019-05-22T11:06:52.936Z,11752.00
2019-05-22T11:07:52.955Z,28640.00
2019-05-22T11:08:52.978Z,27232.00
2019-05-22T11:09:52.984Z,27360.00
2019-05-22T11:10:53.001Z,26720.00
2019-05-22T11:11:53.018Z,26976.00
2019-05-22T11:12:53.038Z,11028.00
2019-05-22T11:14:01.188Z,10612.00
2019-05-22T11:14:53.066Z,10500.00
2019-05-22T11:15:53.079Z,27264.00
2019-05-22T11:16:53.110Z,25440.00
2019-05-22T11:17:53.119Z,25600.00
2019-05-22T11:18:53.138Z,24288.00
2019-05-22T11:19:53.151Z,25184.00
2019-05-22T11:20:53.151Z,26656.00
2019-05-22T11:21:56.828Z,12680.00
2019-05-22T11:22:53.191Z,25856.00
2019-05-22T11:23:53.432Z,24384.00
2019-05-22T11:24:53.216Z,24480.00
2019-05-22T11:25:53.352Z,21952.00
2019-05-22T11:26:53.262Z,24512.00
2019-05-22T11:27:53.280Z,25088.00
2019-05-22T11:28:53.283Z,23040.00
2019-05-22T11:29:53.295Z,25760.00
2019-05-22T11:30:53.310Z,23648.00
2019-05-22T11:31:53.339Z,26752.00
2019-05-22T11:32:53.357Z,24288.00
2019-05-22T11:33:53.366Z,15440.00
2019-05-22T11:34:53.400Z,23808.00
2019-05-22T11:35:53.392Z,13792.00
2019-05-22T11:36:53.440Z,11664.00
2019-05-22T11:37:53.440Z,10856.00
2019-05-22T11:38:53.465Z,20224.00
2019-05-22T11:39:53.476Z,23456.00
2019-05-22T11:40:53.487Z,24032.00
2019-05-22T11:41:53.503Z,24032.00
2019-05-22T11:42:53.542Z,23648.00
2019-05-22T11:43:53.538Z,23520.00
2019-05-22T11:44:53.580Z,23392.00
2019-05-22T11:45:53.580Z,21056.00
2019-05-22T11:46:53.585Z,21344.00
2019-05-22T11:47:53.602Z,11956.00
2019-05-22T11:48:53.648Z,24032.00
2019-05-22T11:49:53.946Z,24128.00
2019-05-22T11:50:53.662Z,12780.00
2019-05-22T11:51:53.667Z,22848.00
2019-05-22T11:52:53.692Z,23008.00
2019-05-22T11:54:07.940Z,22976.00
2019-05-22T11:54:53.740Z,21856.00
2019-05-22T11:55:53.759Z,11036.00
2019-05-22T11:56:53.754Z,20736.00
2019-05-22T11:57:53.773Z,22336.00
2019-05-22T11:58:53.786Z,22144.00
2019-05-22T11:59:53.806Z,19264.00
2019-05-22T12:00:53.818Z,21344.00
2019-05-22T12:01:53.835Z,15072.00
2019-05-22T12:02:53.850Z,22944.00
2019-05-22T12:03:53.878Z,12916.00
2019-05-22T12:04:53.970Z,12576.00
2019-05-22T12:05:53.904Z,12504.00
2019-05-22T12:06:54.127Z,12500.00
2019-05-22T12:07:53.934Z,12444.00
2019-05-22T12:08:53.952Z,12160.00
2019-05-22T12:09:53.969Z,11676.00
2019-05-22T12:10:53.979Z,11884.00
2019-05-22T12:11:54.010Z,11872.00
2019-05-22T12:12:54.013Z,11148.00
2019-05-22T12:13:54.046Z,11300.00
2019-05-22T12:14:54.103Z,17984.00
2019-05-22T12:15:54.062Z,11260.00
2019-05-22T12:16:54.099Z,10912.00
2019-05-22T12:17:54.102Z,10604.00
2019-05-22T12:18:54.116Z,10620.00
2019-05-22T12:19:54.113Z,11136.00
2019-05-22T12:20:54.133Z,23392.00
2019-05-22T12:21:54.228Z,11152.00
2019-05-22T12:22:54.160Z,10700.00
2019-05-22T12:23:54.179Z,10844.00
2019-05-22T12:24:54.198Z,22336.00
2019-05-22T12:25:54.201Z,21376.00
2019-05-22T12:26:54.222Z,21984.00
2019-05-22T12:27:54.237Z,22208.00